createdAt,value
2023-05-20T00:01:02.247Z,97721.00
2023-05-20T00:03:29.952Z,97728.34
2023-05-20T00:05:57.872Z,97728.34
2023-05-20T00:08:25.390Z,97716.88
2023-05-20T00:10:52.780Z,97718.28
2023-05-20T00:13:20.204Z,97720.00
2023-05-20T00:15:48.984Z,97718.97
2023-05-20T00:18:16.426Z,97707.50
2023-05-20T00:20:43.966Z,97709.97
2023-05-20T00:23:11.378Z,97707.06
2023-05-20T00:25:38.859Z,97710.91
2023-05-20T00:28:06.882Z,97703.41
2023-05-20T00:30:35.066Z,97699.22
2023-05-20T00:33:04.029Z,97699.69
2023-05-20T00:35:31.559Z,97700.94
2023-05-20T00:37:59.046Z,97705.38
2023-05-20T00:40:26.528Z,97701.44
2023-05-20T00:42:54.658Z,97710.09
2023-05-20T00:45:22.881Z,97702.16
2023-05-20T00:47:50.498Z,97707.63
2023-05-20T00:50:19.506Z,97704.97
2023-05-20T00:52:48.333Z,97707.91
2023-05-20T00:55:16.584Z,97704.78
2023-05-20T00:57:44.008Z,97702.09
2023-05-20T01:00:13.637Z,97694.78
2023-05-20T01:02:43.782Z,97702.75
2023-05-20T01:05:11.416Z,97688.97
2023-05-20T01:07:40.948Z,97698.56
2023-05-20T01:10:09.707Z,97695.91
2023-05-20T01:12:40.430Z,97687.97
2023-05-20T01:15:10.203Z,97693.03
2023-05-20T01:17:40.176Z,97689.50
2023-05-20T01:20:12.567Z,97693.06
2023-05-20T01:22:47.486Z,97680.31
2023-05-20T01:25:15.231Z,97678.22
2023-05-20T01:27:43.285Z,97679.91
2023-05-20T01:30:11.510Z,97686.00
2023-05-20T01:32:42.278Z,97677.22
2023-05-20T01:35:10.484Z,97678.03
2023-05-20T01:37:41.648Z,97675.94
2023-05-20T01:40:10.898Z,97677.84
2023-05-20T01:42:39.783Z,97675.72
2023-05-20T01:45:08.246Z,97676.34
2023-05-20T01:47:35.794Z,97674.03
2023-05-20T01:50:03.462Z,97670.28
2023-05-20T01:52:31.849Z,97667.56
2023-05-20T01:55:00.968Z,97668.19
2023-05-20T01:57:28.699Z,97675.72
2023-05-20T01:59:56.305Z,97665.03
2023-05-20T02:02:23.994Z,97662.78
2023-05-20T02:04:53.707Z,97660.50
2023-05-20T02:07:21.322Z,97657.16
2023-05-20T02:09:48.792Z,97656.91
2023-05-20T02:12:17.794Z,97655.25
2023-05-20T02:14:46.195Z,97653.78
2023-05-20T02:17:16.307Z,97652.34
2023-05-20T02:19:43.885Z,97654.88
2023-05-20T02:22:11.735Z,97665.94
2023-05-20T02:24:39.320Z,97667.00
2023-05-20T02:27:06.979Z,97669.72
2023-05-20T02:29:36.972Z,97667.44
2023-05-20T02:32:04.954Z,97663.03
2023-05-20T02:34:32.995Z,97666.19
2023-05-20T02:37:01.340Z,97668.25
2023-05-20T02:39:29.885Z,97664.94
2023-05-20T02:41:57.367Z,97660.56
2023-05-20T02:44:24.945Z,97657.59
2023-05-20T02:46:53.814Z,97667.22
2023-05-20T02:49:22.106Z,97664.91
2023-05-20T02:51:49.554Z,97667.22
2023-05-20T02:54:17.814Z,97664.53
2023-05-20T02:56:45.266Z,97657.19
2023-05-20T02:59:12.706Z,97665.78
2023-05-20T03:01:40.509Z,97666.97
2023-05-20T03:04:09.369Z,97663.25
2023-05-20T03:06:38.223Z,97661.81
2023-05-20T03:09:05.938Z,97659.69
2023-05-20T03:11:33.409Z,97660.94
2023-05-20T03:14:01.202Z,97657.16
2023-05-20T03:16:28.902Z,97656.34
2023-05-20T03:18:56.455Z,97654.25
2023-05-20T03:21:26.276Z,97644.81
2023-05-20T03:23:53.741Z,97652.97
2023-05-20T03:26:21.791Z,97647.13
2023-05-20T03:28:49.320Z,97654.00
2023-05-20T03:31:17.734Z,97638.34
2023-05-20T03:33:46.283Z,97650.22
2023-05-20T03:36:13.875Z,97656.47
2023-05-20T03:38:42.659Z,97659.38
2023-05-20T03:41:10.482Z,97658.28
2023-05-20T03:43:38.020Z,97660.38
2023-05-20T03:46:06.623Z,97662.84
2023-05-20T03:48:34.246Z,97663.66
2023-05-20T03:51:01.969Z,97663.84
2023-05-20T03:53:29.507Z,97660.69
2023-05-20T03:55:58.357Z,97658.97
2023-05-20T03:58:26.389Z,97657.47
2023-05-20T04:00:53.950Z,97653.50
2023-05-20T04:03:22.815Z,97640.28
2023-05-20T04:05:50.926Z,97659.28
2023-05-20T04:08:22.090Z,97650.72
2023-05-20T04:10:49.682Z,97646.72
2023-05-20T04:13:18.700Z,97649.81
2023-05-20T04:15:47.432Z,97653.78
2023-05-20T04:18:15.502Z,97654.38
2023-05-20T04:20:43.052Z,97648.50
2023-05-20T04:23:12.946Z,97645.97
2023-05-20T04:25:42.136Z,97645.50
2023-05-20T04:28:10.756Z,97638.34
2023-05-20T04:30:39.444Z,97649.41
2023-05-20T04:33:08.124Z,97645.63
2023-05-20T04:35:37.534Z,97663.44
2023-05-20T04:38:07.451Z,97654.34
2023-05-20T04:40:35.032Z,97660.41
2023-05-20T04:43:03.927Z,97655.81
2023-05-20T04:45:33.695Z,97658.91
2023-05-20T04:48:03.101Z,97659.31
2023-05-20T04:50:30.586Z,97655.75
2023-05-20T04:52:58.993Z,97659.72
2023-05-20T04:55:28.845Z,97655.06
2023-05-20T04:57:56.346Z,97652.50
2023-05-20T05:00:23.895Z,97645.34
2023-05-20T05:02:51.737Z,97651.00
2023-05-20T05:05:21.306Z,97643.19
2023-05-20T05:07:48.936Z,97646.81
2023-05-20T05:10:16.548Z,97641.38
2023-05-20T05:12:44.022Z,97640.72
2023-05-20T05:15:11.911Z,97642.78
2023-05-20T05:17:39.496Z,97637.25
2023-05-20T05:20:09.499Z,97630.47
2023-05-20T05:22:39.709Z,97627.72
2023-05-20T05:25:08.523Z,97632.88
2023-05-20T05:27:36.723Z,97633.78
2023-05-20T05:30:08.472Z,97624.34
2023-05-20T05:32:37.069Z,97622.28
2023-05-20T05:35:07.377Z,97621.91
2023-05-20T05:37:35.920Z,97614.31
2023-05-20T05:40:06.090Z,97617.75
2023-05-20T05:42:33.839Z,97619.91
2023-05-20T05:45:02.105Z,97619.47
2023-05-20T05:47:32.576Z,97622.91
2023-05-20T05:50:00.920Z,97620.94
2023-05-20T05:52:29.631Z,97624.50
2023-05-20T05:54:57.359Z,97623.94
2023-05-20T05:57:26.324Z,97629.06
2023-05-20T05:59:54.024Z,97629.63
2023-05-20T06:02:23.104Z,97615.47
2023-05-20T06:04:50.723Z,97619.91
2023-05-20T06:07:18.752Z,97616.25
2023-05-20T06:09:46.346Z,97607.47
2023-05-20T06:12:14.177Z,97610.72
2023-05-20T06:14:43.419Z,97599.69
2023-05-20T06:17:10.907Z,97604.09
2023-05-20T06:19:39.266Z,97602.09
2023-05-20T06:22:06.787Z,97599.59
2023-05-20T06:24:34.883Z,97599.81
2023-05-20T06:27:03.330Z,97603.28
2023-05-20T06:29:31.102Z,97604.47
2023-05-20T06:32:00.142Z,97596.16
2023-05-20T06:34:27.770Z,97603.13
2023-05-20T06:36:56.143Z,97600.72
2023-05-20T06:39:23.496Z,97600.25
2023-05-20T06:41:52.246Z,97595.06
2023-05-20T06:44:28.404Z,97587.88
2023-05-20T06:47:01.494Z,97593.41
2023-05-20T06:49:29.298Z,97585.97
2023-05-20T06:51:56.798Z,97586.22
2023-05-20T06:54:25.025Z,97582.72
2023-05-20T06:56:55.181Z,97586.41
2023-05-20T06:59:23.461Z,97570.66
2023-05-20T07:01:50.946Z,97571.09
2023-05-20T07:04:20.511Z,97561.34
2023-05-20T07:06:48.693Z,97576.47
2023-05-20T07:09:16.426Z,97568.91
2023-05-20T07:11:43.964Z,97570.69
2023-05-20T07:14:12.583Z,97570.03
2023-05-20T07:16:41.026Z,97578.13
2023-05-20T07:19:09.426Z,97571.44
2023-05-20T07:21:38.542Z,97579.78
2023-05-20T07:24:36.815Z,97570.47
2023-05-20T07:27:05.820Z,97562.28
2023-05-20T07:29:33.426Z,97565.81
2023-05-20T07:32:01.601Z,97564.44
2023-05-20T07:34:29.237Z,97571.16
2023-05-20T07:36:58.490Z,97569.66
2023-05-20T07:39:26.358Z,97566.91
2023-05-20T07:41:53.968Z,97569.72
2023-05-20T07:44:22.281Z,97562.66
2023-05-20T07:46:51.532Z,97555.84
2023-05-20T07:49:21.113Z,97549.22
2023-05-20T07:51:48.890Z,97540.91
2023-05-20T07:54:18.260Z,97541.56
2023-05-20T07:56:48.422Z,97541.44
2023-05-20T07:59:16.113Z,97547.47
2023-05-20T08:01:46.308Z,97548.06
2023-05-20T08:04:16.702Z,97544.47
2023-05-20T08:06:44.536Z,97541.78
2023-05-20T08:09:18.079Z,97549.28
2023-05-20T08:11:49.780Z,97545.81
2023-05-20T08:14:17.320Z,97548.03
2023-05-20T08:16:48.541Z,97548.38
2023-05-20T08:19:16.436Z,97546.06
2023-05-20T08:21:44.071Z,97540.56
2023-05-20T08:24:12.176Z,97539.44
2023-05-20T08:26:41.444Z,97535.06
2023-05-20T08:29:09.549Z,97531.19
2023-05-20T08:31:37.123Z,97532.03
2023-05-20T08:34:04.840Z,97534.22
2023-05-20T08:36:32.517Z,97536.41
2023-05-20T08:39:00.114Z,97532.69
2023-05-20T08:41:29.866Z,97538.03
2023-05-20T08:44:00.872Z,97532.97
2023-05-20T08:46:30.205Z,97530.78
2023-05-20T08:48:59.343Z,97536.78
2023-05-20T08:51:27.738Z,97549.94
2023-05-20T08:53:55.444Z,97533.00
2023-05-20T08:56:23.548Z,97542.94
2023-05-20T08:58:51.092Z,97542.53
2023-05-20T09:03:51.139Z,97534.78
2023-05-20T09:06:20.783Z,97533.16
2023-05-20T09:08:50.354Z,97541.66
2023-05-20T09:11:17.884Z,97528.34
2023-05-20T09:13:45.379Z,97522.59
2023-05-20T09:16:13.543Z,97525.97
2023-05-20T09:18:43.497Z,97533.06
2023-05-20T09:21:11.674Z,97531.16
2023-05-20T09:23:39.194Z,97519.66
2023-05-20T09:26:06.917Z,97512.66
2023-05-20T09:28:36.055Z,97515.28
2023-05-20T09:31:06.613Z,97515.84
2023-05-20T09:33:35.582Z,97516.00
2023-05-20T09:36:07.371Z,97512.56
2023-05-20T09:38:39.046Z,97509.50
2023-05-20T09:41:10.881Z,97510.88
2023-05-20T09:43:40.245Z,97514.41
2023-05-20T09:46:08.672Z,97506.06
2023-05-20T09:48:39.702Z,97500.06
2023-05-20T09:51:08.839Z,97496.19
2023-05-20T09:53:36.603Z,97491.56
2023-05-20T09:56:05.916Z,97492.06
2023-05-20T09:58:36.032Z,97491.56
2023-05-20T10:01:03.914Z,97470.88
2023-05-20T10:03:33.431Z,97469.06
2023-05-20T10:06:25.906Z,97471.47
2023-05-20T10:09:05.475Z,97465.09
2023-05-20T10:11:40.555Z,97472.59
2023-05-20T10:14:29.009Z,97469.94
2023-05-20T10:17:08.977Z,97465.97
2023-05-20T10:19:36.784Z,97455.53
2023-05-20T10:22:06.182Z,97461.66
2023-05-20T10:24:35.021Z,97454.81
2023-05-20T10:27:03.958Z,97461.25
2023-05-20T10:29:43.251Z,97452.78
2023-05-20T10:32:11.167Z,97443.03
2023-05-20T10:34:47.239Z,97448.34
2023-05-20T10:37:27.591Z,97445.97
2023-05-20T10:40:05.999Z,97439.28
2023-05-20T10:42:33.826Z,97440.00
2023-05-20T10:45:01.340Z,97444.78
2023-05-20T10:47:28.790Z,97436.78
2023-05-20T10:49:56.474Z,97431.34
2023-05-20T10:52:25.278Z,97428.78
2023-05-20T10:54:56.664Z,97424.13
2023-05-20T10:57:26.334Z,97424.34
2023-05-20T10:59:54.912Z,97422.25
2023-05-20T11:02:29.182Z,97425.38
2023-05-20T11:04:58.317Z,97423.47
2023-05-20T11:07:28.857Z,97420.69
2023-05-20T11:09:56.680Z,97419.31
2023-05-20T11:12:25.470Z,97414.69
2023-05-20T11:14:53.454Z,97406.00
2023-05-20T11:17:21.230Z,97400.53
2023-05-20T11:19:49.085Z,97399.06
2023-05-20T11:22:16.548Z,97401.38
2023-05-20T11:24:46.505Z,97405.53
2023-05-20T11:27:13.957Z,97395.41
2023-05-20T11:29:42.133Z,97393.16
2023-05-20T11:32:09.758Z,97395.94
2023-05-20T11:34:37.930Z,97385.56
2023-05-20T11:37:08.031Z,97387.94
2023-05-20T11:39:35.543Z,97380.97
2023-05-20T11:42:06.143Z,97382.56
2023-05-20T11:44:33.997Z,97383.03
2023-05-20T11:47:03.192Z,97380.38
2023-05-20T11:49:31.121Z,97378.63
2023-05-20T11:51:58.863Z,97378.63
2023-05-20T11:54:26.417Z,97373.81
2023-05-20T11:56:55.617Z,97375.16
2023-05-20T11:59:25.441Z,97373.66
2023-05-20T12:01:52.941Z,97373.50
2023-05-20T12:04:20.440Z,97372.16
2023-05-20T12:06:47.908Z,97367.94
2023-05-20T12:09:15.556Z,97371.66
2023-05-20T12:11:44.993Z,97372.38
2023-05-20T12:14:12.571Z,97380.75
2023-05-20T12:16:41.521Z,97373.94
2023-05-20T12:19:09.447Z,97367.88
2023-05-20T12:21:37.055Z,97361.38
2023-05-20T12:24:06.874Z,97356.13
2023-05-20T12:26:35.380Z,97356.97
2023-05-20T12:29:02.938Z,97351.59
2023-05-20T12:31:32.389Z,97363.53
2023-05-20T12:34:03.478Z,97358.13
2023-05-20T12:36:31.593Z,97356.50
2023-05-20T12:38:59.106Z,97352.81
2023-05-20T12:41:26.578Z,97357.16
2023-05-20T12:43:54.397Z,97360.41
2023-05-20T12:46:22.474Z,97350.91
2023-05-20T12:48:49.846Z,97354.44
2023-05-20T12:51:20.242Z,97354.06
2023-05-20T12:53:47.883Z,97357.38
2023-05-20T12:56:15.501Z,97355.34
2023-05-20T12:58:42.935Z,97357.97
2023-05-20T13:01:10.615Z,97352.97
2023-05-20T13:03:38.019Z,97352.97
2023-05-20T13:06:05.955Z,97345.59
2023-05-20T13:08:34.729Z,97351.13
2023-05-20T13:11:02.183Z,97355.31
2023-05-20T13:13:29.632Z,97346.44
2023-05-20T13:15:57.542Z,97345.72
2023-05-20T13:18:25.052Z,97349.59
2023-05-20T13:20:52.468Z,97339.94
2023-05-20T13:23:19.869Z,97337.91
2023-05-20T13:25:48.667Z,97337.09
2023-05-20T13:28:20.864Z,97335.84
2023-05-20T13:30:48.400Z,97325.81
2023-05-20T13:33:15.827Z,97322.88
2023-05-20T13:35:43.508Z,97325.22
2023-05-20T13:38:10.908Z,97319.81
2023-05-20T13:40:38.335Z,97317.00
2023-05-20T13:43:07.214Z,97315.63
2023-05-20T13:45:34.661Z,97314.69
2023-05-20T13:48:02.220Z,97316.59
2023-05-20T13:50:29.873Z,97313.94
2023-05-20T13:52:57.253Z,97307.69
2023-05-20T13:55:25.118Z,97301.88
2023-05-20T13:57:54.262Z,97301.38
2023-05-20T14:00:23.143Z,97298.13
2023-05-20T14:02:50.687Z,97292.09
2023-05-20T14:05:18.838Z,97293.22
2023-05-20T14:07:46.457Z,97285.13
2023-05-20T14:10:13.936Z,97282.84
2023-05-20T14:12:42.909Z,97282.03
2023-05-20T14:15:12.224Z,97288.25
2023-05-20T14:17:41.067Z,97282.00
2023-05-20T14:20:09.605Z,97272.44
2023-05-20T14:22:37.307Z,97267.03
2023-05-20T14:25:05.900Z,97262.69
2023-05-20T14:27:33.564Z,97265.63
2023-05-20T14:30:01.203Z,97265.97
2023-05-20T14:32:29.004Z,97258.72
2023-05-20T14:34:58.096Z,97260.38
2023-05-20T14:37:27.236Z,97244.19
2023-05-20T14:39:54.880Z,97249.84
2023-05-20T14:42:22.771Z,97248.56
2023-05-20T14:44:50.282Z,97248.75
2023-05-20T14:47:21.970Z,97239.72
2023-05-20T14:49:50.311Z,97248.22
2023-05-20T14:52:22.303Z,97237.63
2023-05-20T14:54:49.838Z,97249.31
2023-05-20T14:57:17.280Z,97240.47
2023-05-20T14:59:44.798Z,97241.81
2023-05-20T15:02:14.777Z,97237.25
2023-05-20T15:04:48.761Z,97242.78
2023-05-20T15:07:16.591Z,97248.50
2023-05-20T15:09:45.454Z,97246.59
2023-05-20T15:12:13.115Z,97246.13
2023-05-20T15:14:40.860Z,97240.38
2023-05-20T15:17:09.065Z,97247.59
2023-05-20T15:19:38.966Z,97244.66
2023-05-20T15:22:08.706Z,97241.16
2023-05-20T15:24:36.044Z,97238.63
2023-05-20T15:27:05.714Z,97238.59
2023-05-20T15:29:33.316Z,97228.94
2023-05-20T15:32:00.792Z,97237.31
2023-05-20T15:34:28.153Z,97235.09
2023-05-20T15:36:55.951Z,97230.50
2023-05-20T15:39:23.453Z,97236.09
2023-05-20T15:41:56.026Z,97241.63
2023-05-20T15:44:24.871Z,97239.38
2023-05-20T15:46:52.487Z,97238.56
2023-05-20T15:49:19.937Z,97238.25
2023-05-20T15:52:11.909Z,97240.19
2023-05-20T15:54:34.732Z,97233.63
2023-05-20T15:57:02.874Z,97236.91
2023-05-20T15:59:31.877Z,97230.66
2023-05-20T16:01:59.416Z,97236.50
2023-05-20T16:04:26.894Z,97226.94
2023-05-20T16:06:54.459Z,97218.53
2023-05-20T16:09:22.299Z,97224.56
2023-05-20T16:11:49.771Z,97219.84
2023-05-20T16:14:17.211Z,97213.13
2023-05-20T16:16:46.295Z,97219.88
2023-05-20T16:19:14.005Z,97218.22
2023-05-20T16:21:41.636Z,97214.81
2023-05-20T16:24:09.128Z,97221.88
2023-05-20T16:26:45.574Z,97213.03
2023-05-20T16:29:14.344Z,97210.53
2023-05-20T16:31:46.496Z,97202.19
2023-05-20T16:34:16.781Z,97207.88
2023-05-20T16:36:47.596Z,97218.19
2023-05-20T16:39:15.621Z,97221.28
2023-05-20T16:41:43.352Z,97225.22
2023-05-20T16:44:11.186Z,97220.78
2023-05-20T16:46:38.640Z,97228.47
2023-05-20T16:49:06.133Z,97228.47
2023-05-20T16:51:35.009Z,97231.88
2023-05-20T16:54:02.647Z,97233.13
2023-05-20T16:56:29.997Z,97225.91
2023-05-20T16:58:57.433Z,97230.47
2023-05-20T17:01:24.887Z,97230.56
2023-05-20T17:03:52.465Z,97228.28
2023-05-20T17:06:20.146Z,97231.81
2023-05-20T17:08:48.858Z,97227.88
2023-05-20T17:11:16.518Z,97222.16
2023-05-20T17:13:43.936Z,97232.06
2023-05-20T17:16:12.222Z,97234.31
2023-05-20T17:18:39.866Z,97236.31
2023-05-20T17:21:07.344Z,97237.22
2023-05-20T17:23:34.775Z,97240.59
2023-05-20T17:26:03.953Z,97248.34
2023-05-20T17:28:31.783Z,97246.00
2023-05-20T17:30:59.300Z,97245.97
2023-05-20T17:33:26.751Z,97257.63
2023-05-20T17:35:54.330Z,97254.16
2023-05-20T17:38:22.312Z,97254.31
2023-05-20T17:40:49.739Z,97255.44
2023-05-20T17:43:18.591Z,97262.69
2023-05-20T17:45:46.540Z,97262.78
2023-05-20T17:48:14.098Z,97261.06
2023-05-20T17:50:41.746Z,97269.59
2023-05-20T17:53:09.285Z,97266.41
2023-05-20T17:55:36.941Z,97265.91
2023-05-20T17:58:04.835Z,97258.06
2023-05-20T18:00:42.206Z,97253.94
2023-05-20T18:03:10.359Z,97257.63
2023-05-20T18:05:37.969Z,97259.88
2023-05-20T18:08:05.904Z,97255.44
2023-05-20T18:10:33.458Z,97257.56
2023-05-20T18:13:01.351Z,97254.44
2023-05-20T18:15:28.856Z,97257.81
2023-05-20T18:17:57.829Z,97257.72
2023-05-20T18:20:25.367Z,97257.75
2023-05-20T18:22:58.197Z,97260.53
2023-05-20T18:25:26.590Z,97260.41
2023-05-20T18:27:54.139Z,97257.25
2023-05-20T18:30:23.128Z,97261.03
2023-05-20T18:32:51.604Z,97261.81
2023-05-20T18:35:21.173Z,97266.09
2023-05-20T18:37:48.666Z,97267.22
2023-05-20T18:40:16.194Z,97261.94
2023-05-20T18:42:43.703Z,97260.41
2023-05-20T18:45:12.008Z,97267.66
2023-05-20T18:47:39.782Z,97270.16
2023-05-20T18:50:07.669Z,97261.34
2023-05-20T18:52:36.516Z,97266.44
2023-05-20T18:55:04.434Z,97271.97
2023-05-20T18:57:31.922Z,97261.31
2023-05-20T18:59:59.448Z,97264.94
2023-05-20T19:02:26.990Z,97266.66
2023-05-20T19:04:54.466Z,97260.16
2023-05-20T19:07:22.751Z,97274.31
2023-05-20T19:09:52.012Z,97267.53
2023-05-20T19:12:19.623Z,97283.28
2023-05-20T19:14:47.254Z,97287.22
2023-05-20T19:17:14.805Z,97291.16
2023-05-20T19:19:42.430Z,97295.06
2023-05-20T19:22:10.032Z,97300.88
2023-05-20T19:24:37.520Z,97299.59
2023-05-20T19:27:06.619Z,97304.31
2023-05-20T19:29:34.076Z,97303.56
2023-05-20T19:32:01.622Z,97309.06
2023-05-20T19:34:29.148Z,97305.19
2023-05-20T19:36:57.052Z,97301.94
2023-05-20T19:39:24.647Z,97301.38
2023-05-20T19:41:52.999Z,97296.72
2023-05-20T19:44:23.362Z,97293.69
2023-05-20T19:46:51.420Z,97294.81
2023-05-20T19:49:19.001Z,97297.31
2023-05-20T19:51:46.715Z,97302.25
2023-05-20T19:54:14.227Z,97309.16
2023-05-20T19:56:41.728Z,97305.84
2023-05-20T19:59:09.256Z,97311.31
2023-05-20T20:01:38.247Z,97312.69
2023-05-20T20:04:06.061Z,97311.31
2023-05-20T20:06:33.745Z,97311.31
2023-05-20T20:09:01.376Z,97315.13
2023-05-20T20:11:28.794Z,97304.91
2023-05-20T20:13:58.346Z,97314.53
2023-05-20T20:16:26.952Z,97311.22
2023-05-20T20:18:55.924Z,97313.66
2023-05-20T20:21:25.714Z,97306.50
2023-05-20T20:23:53.408Z,97307.56
2023-05-20T20:26:25.684Z,97307.28
2023-05-20T20:28:53.274Z,97314.31
2023-05-20T20:31:20.988Z,97316.44
2023-05-20T20:33:48.497Z,97312.31
2023-05-20T20:36:17.324Z,97316.97
2023-05-20T20:38:46.886Z,97309.53
2023-05-20T20:41:16.208Z,97310.91
2023-05-20T20:43:45.400Z,97312.56
2023-05-20T20:46:15.572Z,97316.06
2023-05-20T20:48:45.876Z,97314.63
2023-05-20T20:51:13.461Z,97311.25
2023-05-20T20:53:43.310Z,97305.47
2023-05-20T20:56:10.804Z,97304.91
2023-05-20T20:58:38.764Z,97295.19
2023-05-20T21:01:06.613Z,97294.34
2023-05-20T21:03:34.213Z,97290.16
2023-05-20T21:06:01.985Z,97297.47
2023-05-20T21:08:30.430Z,97301.84
2023-05-20T21:10:59.634Z,97295.75
2023-05-20T21:13:27.836Z,97304.53
2023-05-20T21:15:55.770Z,97301.72
2023-05-20T21:18:23.953Z,97296.22
2023-05-20T21:20:53.247Z,97301.13
2023-05-20T21:23:21.836Z,97288.94
2023-05-20T21:25:49.712Z,97297.97
2023-05-20T21:28:18.656Z,97292.16
2023-05-20T21:30:46.094Z,97288.53
2023-05-20T21:33:13.751Z,97287.16
2023-05-20T21:35:41.270Z,97287.16
2023-05-20T21:38:09.924Z,97289.59
2023-05-20T21:40:37.468Z,97288.19
2023-05-20T21:43:05.024Z,97290.63
2023-05-20T21:45:33.913Z,97281.47
2023-05-20T21:48:01.686Z,97285.28
2023-05-20T21:50:29.182Z,97278.41
2023-05-20T21:52:56.606Z,97284.41
2023-05-20T21:55:24.118Z,97283.81
2023-05-20T21:57:51.555Z,97277.59
2023-05-20T22:00:19.296Z,97277.59
2023-05-20T22:02:48.151Z,97272.63
2023-05-20T22:05:17.150Z,97278.56
2023-05-20T22:07:44.600Z,97275.16
2023-05-20T22:10:13.707Z,97269.69
2023-05-20T22:12:43.929Z,97270.19
2023-05-20T22:15:11.771Z,97274.53
2023-05-20T22:17:39.395Z,97270.47
2023-05-20T22:20:11.094Z,97265.00
2023-05-20T22:22:39.231Z,97267.09
2023-05-20T22:25:06.951Z,97261.22
2023-05-20T22:27:34.837Z,97259.88
2023-05-20T22:30:02.554Z,97259.09
2023-05-20T22:32:31.264Z,97255.00
2023-05-20T22:34:58.696Z,97254.16
2023-05-20T22:37:28.843Z,97240.34
2023-05-20T22:39:56.588Z,97243.63
2023-05-20T22:42:24.086Z,97241.25
2023-05-20T22:44:51.623Z,97245.28
2023-05-20T22:47:19.127Z,97237.34
2023-05-20T22:49:46.775Z,97231.47
2023-05-20T22:52:14.448Z,97230.97
2023-05-20T22:54:43.295Z,97230.72
2023-05-20T22:57:10.691Z,97230.47
2023-05-20T22:59:38.966Z,97218.38
2023-05-20T23:02:06.817Z,97223.84
2023-05-20T23:04:34.455Z,97228.50
2023-05-20T23:07:02.061Z,97223.78
2023-05-20T23:09:29.534Z,97223.72
2023-05-20T23:11:58.299Z,97220.03
2023-05-20T23:14:25.957Z,97222.66
2023-05-20T23:16:53.473Z,97218.56
2023-05-20T23:19:21.215Z,97221.59
2023-05-20T23:21:48.703Z,97214.75
2023-05-20T23:24:16.832Z,97209.75
2023-05-20T23:26:44.412Z,97211.94
2023-05-20T23:29:13.288Z,97216.81
2023-05-20T23:31:40.980Z,97215.16
2023-05-20T23:34:08.642Z,97215.16
2023-05-20T23:36:37.215Z,97210.53
2023-05-20T23:39:04.636Z,97212.19
2023-05-20T23:41:32.396Z,97213.84
2023-05-20T23:43:59.898Z,97221.22
2023-05-20T23:46:28.863Z,97222.13
2023-05-20T23:48:56.378Z,97214.75
2023-05-20T23:51:23.893Z,97217.66
2023-05-20T23:53:51.502Z,97212.69
2023-05-20T23:56:18.957Z,97209.38
2023-05-20T23:58:47.211Z,97208.47
